createdAt,value
2022-11-18T00:01:23.919Z,96688.00
2022-11-18T00:03:52.531Z,96694.00
2022-11-18T00:06:25.279Z,96678.00
2022-11-18T00:08:54.650Z,96686.00
2022-11-18T00:11:45.331Z,96684.00
2022-11-18T00:14:21.037Z,96695.00
2022-11-18T00:17:05.177Z,96698.00
2022-11-18T00:19:40.105Z,96697.00
2022-11-18T00:22:12.735Z,96701.00
2022-11-18T00:24:40.167Z,96703.00
2022-11-18T00:27:07.556Z,96706.00
2022-11-18T00:29:34.918Z,96698.00
2022-11-18T00:32:02.222Z,96701.00
2022-11-18T00:34:29.556Z,96708.00
2022-11-18T00:36:56.893Z,96707.00
2022-11-18T00:39:24.437Z,96717.00
2022-11-18T00:42:10.483Z,96717.00
2022-11-18T00:44:37.845Z,96728.00
2022-11-18T00:47:06.209Z,96727.00
2022-11-18T00:49:33.800Z,96739.00
2022-11-18T00:52:01.795Z,96735.00
2022-11-18T00:54:29.232Z,96742.00
2022-11-18T00:56:56.576Z,96750.00
2022-11-18T00:59:23.922Z,96759.00
2022-11-18T01:01:51.372Z,96757.00
2022-11-18T01:04:18.785Z,96767.00
2022-11-18T01:06:46.101Z,96770.00
2022-11-18T01:09:13.448Z,96772.00
2022-11-18T01:11:59.160Z,96771.00
2022-11-18T01:14:27.195Z,96771.00
2022-11-18T01:16:57.170Z,96766.00
2022-11-18T01:19:26.146Z,96776.00
2022-11-18T01:21:53.576Z,96784.00
2022-11-18T01:24:20.844Z,96781.00
2022-11-18T01:26:49.237Z,96781.00
2022-11-18T01:29:17.844Z,96789.00
2022-11-18T01:32:01.804Z,96795.00
2022-11-18T01:34:32.701Z,96796.00
2022-11-18T01:37:00.011Z,96811.00
2022-11-18T01:39:27.647Z,96812.00
2022-11-18T01:41:54.978Z,96817.00
2022-11-18T01:45:10.120Z,96829.00
2022-11-18T01:47:55.576Z,96825.00
2022-11-18T01:50:24.393Z,96825.00
2022-11-18T01:52:57.746Z,96832.00
2022-11-18T01:55:33.331Z,96835.00
2022-11-18T01:58:17.284Z,96843.00
2022-11-18T02:00:44.720Z,96849.00
2022-11-18T02:03:14.116Z,96842.00
2022-11-18T02:05:43.954Z,96846.00
2022-11-18T02:08:11.500Z,96846.00
2022-11-18T02:10:38.794Z,96858.00
2022-11-18T02:13:07.738Z,96845.00
2022-11-18T02:16:03.888Z,96850.00
2022-11-18T02:19:10.976Z,96855.00
2022-11-18T02:22:18.575Z,96852.00
2022-11-18T02:25:15.596Z,96863.00
2022-11-18T02:28:26.123Z,96861.00
2022-11-18T02:31:41.573Z,96851.00
2022-11-18T02:34:41.355Z,96857.00
2022-11-18T02:37:51.318Z,96874.00
2022-11-18T02:40:57.775Z,96871.00
2022-11-18T02:43:58.107Z,96865.00
2022-11-18T02:46:33.181Z,96882.00
2022-11-18T02:49:06.626Z,96874.00
2022-11-18T02:51:35.507Z,96873.00
2022-11-18T02:54:11.848Z,96882.00
2022-11-18T02:56:39.211Z,96871.00
2022-11-18T02:59:06.516Z,96870.00
2022-11-18T03:01:37.656Z,96870.00
2022-11-18T03:04:05.156Z,96874.00
2022-11-18T03:06:49.784Z,96893.00
2022-11-18T03:09:31.891Z,96899.00
2022-11-18T03:12:46.646Z,96897.00
2022-11-18T03:16:01.295Z,96897.00
2022-11-18T03:19:18.862Z,96900.00
2022-11-18T03:22:28.333Z,96913.00
2022-11-18T03:25:29.570Z,96908.00
2022-11-18T03:28:12.554Z,96923.00
2022-11-18T03:31:21.482Z,96917.00
2022-11-18T03:34:10.861Z,96926.00
2022-11-18T03:36:52.213Z,96929.00
2022-11-18T03:39:22.584Z,96908.00
2022-11-18T03:42:28.706Z,96925.00
2022-11-18T03:45:07.018Z,96935.00
2022-11-18T03:47:45.599Z,96931.00
2022-11-18T03:50:26.560Z,96931.00
2022-11-18T03:52:55.192Z,96939.00
2022-11-18T03:55:36.722Z,96936.00
2022-11-18T03:58:42.805Z,96941.00
2022-11-18T04:01:23.744Z,96948.00
2022-11-18T04:03:51.152Z,96946.00
2022-11-18T04:06:56.251Z,96959.00
2022-11-18T04:09:40.039Z,96962.00
2022-11-18T04:12:15.968Z,96957.00
2022-11-18T04:14:46.564Z,96960.00
2022-11-18T04:17:19.809Z,96939.00
2022-11-18T04:19:47.830Z,96967.00
2022-11-18T04:22:16.178Z,96970.00
2022-11-18T04:24:43.452Z,96974.00
2022-11-18T04:27:11.274Z,96983.00
2022-11-18T04:29:38.594Z,96980.00
2022-11-18T04:32:06.578Z,96984.00
2022-11-18T04:34:33.937Z,96989.00
2022-11-18T04:37:01.359Z,97004.00
2022-11-18T04:39:29.122Z,97013.00
2022-11-18T04:41:56.475Z,97006.00
2022-11-18T04:44:30.253Z,97010.00
2022-11-18T04:47:02.306Z,97011.00
2022-11-18T04:49:30.752Z,97008.00
2022-11-18T04:51:59.116Z,97005.00
2022-11-18T04:54:28.021Z,97007.00
2022-11-18T04:56:56.657Z,97010.00
2022-11-18T04:59:30.088Z,97004.00
2022-11-18T05:02:00.846Z,97012.00
2022-11-18T05:04:33.357Z,97009.00
2022-11-18T05:07:04.525Z,97007.00
2022-11-18T05:09:32.578Z,97021.00
2022-11-18T05:12:19.950Z,97018.00
2022-11-18T05:14:50.369Z,97021.00
2022-11-18T05:17:19.196Z,97026.00
2022-11-18T05:19:46.514Z,97026.00
2022-11-18T05:22:15.959Z,97028.00
2022-11-18T05:24:43.378Z,97032.00
2022-11-18T05:27:13.046Z,97027.00
2022-11-18T05:29:40.349Z,97037.00
2022-11-18T05:32:07.621Z,97030.00
2022-11-18T05:34:35.031Z,97032.00
2022-11-18T05:37:02.350Z,97052.00
2022-11-18T05:39:29.694Z,97056.00
2022-11-18T05:42:15.610Z,97065.00
2022-11-18T05:44:43.014Z,97067.00
2022-11-18T05:47:10.647Z,97070.00
2022-11-18T05:49:37.969Z,97072.00
2022-11-18T05:52:05.909Z,97075.00
2022-11-18T05:54:33.444Z,97078.00
2022-11-18T05:57:01.022Z,97082.00
2022-11-18T05:59:28.438Z,97083.00
2022-11-18T06:02:05.230Z,97083.00
2022-11-18T06:05:03.682Z,97086.00
2022-11-18T06:07:45.372Z,97088.00
2022-11-18T06:10:25.344Z,97085.00
2022-11-18T06:13:00.723Z,97093.00
2022-11-18T06:15:37.894Z,97090.00
2022-11-18T06:18:29.853Z,97095.00
2022-11-18T06:21:05.404Z,97089.00
2022-11-18T06:23:40.226Z,97097.00
2022-11-18T06:26:09.510Z,97088.00
2022-11-18T06:28:37.854Z,97093.00
2022-11-18T06:31:05.279Z,97097.00
2022-11-18T06:33:32.611Z,97098.00
2022-11-18T06:36:00.024Z,97097.00
2022-11-18T06:38:27.327Z,97102.00
2022-11-18T06:40:58.369Z,97100.00
2022-11-18T06:43:43.701Z,97106.00
2022-11-18T06:46:37.008Z,97116.00
2022-11-18T06:49:04.474Z,97128.00
2022-11-18T06:51:32.803Z,97123.00
2022-11-18T06:54:07.508Z,97134.00
2022-11-18T06:56:37.984Z,97130.00
2022-11-18T06:59:05.878Z,97133.00
2022-11-18T07:01:38.799Z,97142.00
2022-11-18T07:04:06.365Z,97140.00
2022-11-18T07:06:36.407Z,97149.00
2022-11-18T07:09:07.168Z,97151.00
2022-11-18T07:11:35.321Z,97155.00
2022-11-18T07:14:02.710Z,97163.00
2022-11-18T07:16:30.357Z,97171.00
2022-11-18T07:18:57.939Z,97184.00
2022-11-18T07:21:29.837Z,97179.00
2022-11-18T07:23:57.809Z,97183.00
2022-11-18T07:26:25.378Z,97188.00
2022-11-18T07:28:54.010Z,97192.00
2022-11-18T07:31:21.708Z,97200.00
2022-11-18T07:33:50.154Z,97194.00
2022-11-18T07:36:32.312Z,97200.00
2022-11-18T07:39:06.273Z,97201.00
2022-11-18T07:41:34.506Z,97187.00
2022-11-18T07:44:04.975Z,97201.00
2022-11-18T07:46:37.176Z,97206.00
2022-11-18T07:49:09.239Z,97188.00
2022-11-18T07:51:40.458Z,97201.00
2022-11-18T07:54:17.183Z,97210.00
2022-11-18T07:56:44.914Z,97213.00
2022-11-18T07:59:12.213Z,97213.00
2022-11-18T08:01:39.608Z,97209.00
2022-11-18T08:04:12.586Z,97213.00
2022-11-18T08:06:40.806Z,97203.00
2022-11-18T08:09:09.122Z,97216.00
2022-11-18T08:11:37.066Z,97208.00
2022-11-18T08:14:04.646Z,97209.00
2022-11-18T08:16:32.022Z,97217.00
2022-11-18T08:19:00.837Z,97230.00
2022-11-18T08:21:28.613Z,97229.00
2022-11-18T08:23:58.758Z,97229.00
2022-11-18T08:26:27.821Z,97238.00
2022-11-18T08:28:55.308Z,97234.00
2022-11-18T08:31:30.572Z,97242.00
2022-11-18T08:34:07.602Z,97237.00
2022-11-18T08:36:38.397Z,97236.00
2022-11-18T08:39:09.096Z,97238.00
2022-11-18T08:41:44.085Z,97241.00
2022-11-18T08:44:16.356Z,97248.00
2022-11-18T08:46:46.871Z,97243.00
2022-11-18T08:49:14.728Z,97239.00
2022-11-18T08:51:42.133Z,97247.00
2022-11-18T08:54:11.949Z,97264.00
2022-11-18T08:56:40.197Z,97256.00
2022-11-18T08:59:08.925Z,97264.00
2022-11-18T09:01:42.034Z,97266.00
2022-11-18T09:04:10.705Z,97265.00
2022-11-18T09:06:40.197Z,97270.00
2022-11-18T09:09:08.781Z,97255.00
2022-11-18T09:11:39.446Z,97270.00
2022-11-18T09:16:54.175Z,97288.00
2022-11-18T09:22:09.824Z,97282.00
2022-11-18T09:24:38.172Z,97284.00
2022-11-18T09:27:12.174Z,97278.00
2022-11-18T09:29:42.652Z,97282.00
2022-11-18T09:32:10.038Z,97296.00
2022-11-18T09:34:37.441Z,97295.00
2022-11-18T09:37:07.365Z,97308.00
2022-11-18T09:39:36.995Z,97307.00
2022-11-18T09:43:10.937Z,97317.00
2022-11-18T09:45:48.508Z,97317.00
2022-11-18T09:48:46.140Z,97312.00
2022-11-18T09:51:13.935Z,97322.00
2022-11-18T09:53:45.877Z,97323.00
2022-11-18T09:56:17.262Z,97326.00
2022-11-18T09:58:45.886Z,97338.00
2022-11-18T10:01:20.119Z,97328.00
2022-11-18T10:03:48.018Z,97333.00
2022-11-18T10:06:34.175Z,97333.00
2022-11-18T10:09:41.176Z,97332.00
2022-11-18T10:12:45.919Z,97339.00
2022-11-18T10:15:43.665Z,97337.00
2022-11-18T10:19:26.803Z,97344.00
2022-11-18T10:22:55.788Z,97352.00
2022-11-18T10:25:23.781Z,97342.00
2022-11-18T10:27:53.100Z,97344.00
2022-11-18T10:30:27.695Z,97332.00
2022-11-18T10:33:26.546Z,97333.00
2022-11-18T10:36:16.638Z,97337.00
2022-11-18T10:38:49.720Z,97329.00
2022-11-18T10:41:20.808Z,97335.00
2022-11-18T10:43:49.019Z,97332.00
2022-11-18T10:46:39.192Z,97335.00
2022-11-18T10:49:09.427Z,97339.00
2022-11-18T10:51:45.459Z,97338.00
2022-11-18T10:54:23.798Z,97342.00
2022-11-18T10:57:08.143Z,97340.00
2022-11-18T10:59:57.629Z,97340.00
2022-11-18T11:02:34.687Z,97341.00
2022-11-18T11:05:22.467Z,97329.00
2022-11-18T11:08:35.881Z,97335.00
2022-11-18T11:11:04.487Z,97338.00
2022-11-18T11:13:35.775Z,97345.00
2022-11-18T11:16:06.606Z,97347.00
2022-11-18T11:18:44.351Z,97328.00
2022-11-18T11:21:22.960Z,97346.00
2022-11-18T11:23:50.367Z,97350.00
2022-11-18T11:30:25.301Z,97328.00
2022-11-18T11:34:01.957Z,97343.00
2022-11-18T11:37:45.579Z,97331.00
2022-11-18T11:40:57.600Z,97342.00
2022-11-18T11:44:39.709Z,97347.00
2022-11-18T11:48:19.446Z,97358.00
2022-11-18T11:51:15.112Z,97352.00
2022-11-18T11:54:47.791Z,97354.00
2022-11-18T11:57:53.738Z,97348.00
2022-11-18T12:00:21.267Z,97347.00
2022-11-18T12:03:52.011Z,97350.00
2022-11-18T12:06:19.977Z,97350.00
2022-11-18T12:09:39.311Z,97325.00
2022-11-18T12:12:35.671Z,97342.00
2022-11-18T12:16:24.576Z,97335.00
2022-11-18T12:19:19.573Z,97332.00
2022-11-18T12:21:47.661Z,97334.00
2022-11-18T12:24:24.781Z,97352.00
2022-11-18T12:26:53.045Z,97352.00
2022-11-18T12:29:20.478Z,97353.00
2022-11-18T12:31:58.083Z,97341.00
2022-11-18T12:34:44.757Z,97353.00
2022-11-18T12:37:24.064Z,97356.00
2022-11-18T12:39:58.923Z,97360.00
2022-11-18T12:43:05.902Z,97355.00
2022-11-18T12:45:42.511Z,97363.00
2022-11-18T12:48:42.543Z,97366.00
2022-11-18T12:51:15.820Z,97363.00
2022-11-18T12:53:50.211Z,97368.00
2022-11-18T12:56:36.943Z,97370.00
2022-11-18T12:59:05.412Z,97362.00
2022-11-18T13:01:36.914Z,97371.00
2022-11-18T13:04:22.272Z,97365.00
2022-11-18T13:06:51.141Z,97368.00
2022-11-18T13:09:26.057Z,97360.00
2022-11-18T13:12:14.197Z,97367.00
2022-11-18T13:15:07.027Z,97372.00
2022-11-18T13:17:52.027Z,97379.00
2022-11-18T13:20:37.701Z,97379.00
2022-11-18T13:23:28.105Z,97367.00
2022-11-18T13:26:31.679Z,97369.00
2022-11-18T13:30:06.222Z,97366.00
2022-11-18T13:32:33.682Z,97368.00
2022-11-18T13:35:19.955Z,97366.00
2022-11-18T13:38:01.857Z,97363.00
2022-11-18T13:41:04.496Z,97371.00
2022-11-18T13:43:33.290Z,97373.00
2022-11-18T13:46:16.497Z,97364.00
2022-11-18T13:48:58.050Z,97380.00
2022-11-18T13:51:26.734Z,97372.00
2022-11-18T13:53:54.255Z,97379.00
2022-11-18T13:56:34.940Z,97377.00
2022-11-18T13:59:20.609Z,97388.00
2022-11-18T14:02:00.048Z,97382.00
2022-11-18T14:04:31.558Z,97378.00
2022-11-18T14:07:33.713Z,97385.00
2022-11-18T14:10:15.446Z,97392.00
2022-11-18T14:12:42.851Z,97373.00
2022-11-18T14:15:43.260Z,97383.00
2022-11-18T14:18:46.460Z,97388.00
2022-11-18T14:21:14.175Z,97392.00
2022-11-18T14:23:44.375Z,97373.00
2022-11-18T14:26:12.934Z,97398.00
2022-11-18T14:28:40.335Z,97397.00
2022-11-18T14:31:30.874Z,97395.00
2022-11-18T14:34:27.007Z,97401.00
2022-11-18T14:36:56.780Z,97402.00
2022-11-18T14:39:32.182Z,97407.00
2022-11-18T14:42:00.286Z,97405.00
2022-11-18T14:44:28.730Z,97407.00
2022-11-18T14:47:06.399Z,97410.00
2022-11-18T14:49:34.040Z,97410.00
2022-11-18T14:52:02.782Z,97400.00
2022-11-18T14:54:30.810Z,97398.00
2022-11-18T14:57:04.058Z,97407.00
2022-11-18T14:59:32.364Z,97404.00
2022-11-18T15:02:01.010Z,97404.00
2022-11-18T15:04:28.455Z,97410.00
2022-11-18T15:06:56.538Z,97411.00
2022-11-18T15:09:23.851Z,97420.00
2022-11-18T15:11:51.348Z,97415.00
2022-11-18T15:14:18.816Z,97409.00
2022-11-18T15:16:46.330Z,97413.00
2022-11-18T15:19:16.551Z,97410.00
2022-11-18T15:21:45.553Z,97414.00
2022-11-18T15:24:13.527Z,97409.00
2022-11-18T15:26:46.323Z,97421.00
2022-11-18T15:29:24.754Z,97415.00
2022-11-18T15:31:52.455Z,97421.00
2022-11-18T15:34:21.577Z,97423.00
2022-11-18T15:36:49.816Z,97422.00
2022-11-18T15:39:17.168Z,97423.00
2022-11-18T15:41:44.734Z,97427.00
2022-11-18T15:44:12.609Z,97428.00
2022-11-18T15:46:40.558Z,97439.00
2022-11-18T15:49:13.814Z,97431.00
2022-11-18T15:51:42.391Z,97435.00
2022-11-18T15:54:09.919Z,97425.00
2022-11-18T15:56:38.382Z,97432.00
2022-11-18T15:59:11.801Z,97435.00
2022-11-18T16:01:49.505Z,97443.00
2022-11-18T16:04:19.386Z,97449.00
2022-11-18T16:06:47.719Z,97446.00
2022-11-18T16:09:17.368Z,97451.00
2022-11-18T16:12:03.915Z,97458.00
2022-11-18T16:14:31.267Z,97451.00
2022-11-18T16:16:58.585Z,97448.00
2022-11-18T16:19:27.229Z,97458.00
2022-11-18T16:21:57.286Z,97447.00
2022-11-18T16:24:29.227Z,97451.00
2022-11-18T16:26:57.299Z,97450.00
2022-11-18T16:29:25.348Z,97445.00
2022-11-18T16:31:54.439Z,97452.00
2022-11-18T16:34:28.253Z,97464.00
2022-11-18T16:37:02.163Z,97463.00
2022-11-18T16:39:29.984Z,97461.00
2022-11-18T16:42:08.055Z,97467.00
2022-11-18T16:44:37.744Z,97478.00
2022-11-18T16:47:13.742Z,97471.00
2022-11-18T16:49:42.233Z,97475.00
2022-11-18T16:52:09.604Z,97480.00
2022-11-18T16:54:44.265Z,97487.00
2022-11-18T16:57:12.213Z,97482.00
2022-11-18T16:59:39.469Z,97481.00
2022-11-18T17:02:07.329Z,97485.00
2022-11-18T17:04:37.162Z,97475.00
2022-11-18T17:07:05.436Z,97468.00
2022-11-18T17:09:33.154Z,97478.00
2022-11-18T17:12:00.484Z,97476.00
2022-11-18T17:14:28.911Z,97481.00
2022-11-18T17:16:56.679Z,97486.00
2022-11-18T17:19:24.869Z,97485.00
2022-11-18T17:21:52.972Z,97485.00
2022-11-18T17:24:23.904Z,97483.00
2022-11-18T17:26:52.514Z,97493.00
2022-11-18T17:29:20.996Z,97486.00
2022-11-18T17:31:48.966Z,97488.00
2022-11-18T17:34:17.016Z,97496.00
2022-11-18T17:36:44.568Z,97499.00
2022-11-18T17:39:13.395Z,97498.00
2022-11-18T17:41:59.331Z,97504.00
2022-11-18T17:44:29.189Z,97517.00
2022-11-18T17:46:56.848Z,97511.00
2022-11-18T17:49:24.768Z,97509.00
2022-11-18T17:51:52.349Z,97522.00
2022-11-18T17:54:21.013Z,97522.00
2022-11-18T17:56:49.945Z,97533.00
2022-11-18T17:59:18.419Z,97531.00
2022-11-18T18:01:46.421Z,97525.00
2022-11-18T18:04:15.382Z,97539.00
2022-11-18T18:06:42.827Z,97539.00
2022-11-18T18:09:10.244Z,97536.00
2022-11-18T18:11:37.501Z,97528.00
2022-11-18T18:14:22.451Z,97534.00
2022-11-18T18:16:51.229Z,97533.00
2022-11-18T18:19:22.586Z,97546.00
2022-11-18T18:21:50.615Z,97538.00
2022-11-18T18:24:20.344Z,97541.00
2022-11-18T18:26:51.702Z,97544.00
2022-11-18T18:29:19.037Z,97544.00
2022-11-18T18:31:46.332Z,97543.00
2022-11-18T18:34:13.643Z,97549.00
2022-11-18T18:36:40.899Z,97553.00
2022-11-18T18:39:08.155Z,97557.00
2022-11-18T18:41:35.639Z,97554.00
2022-11-18T18:44:02.918Z,97555.00
2022-11-18T18:46:33.383Z,97549.00
2022-11-18T18:49:20.618Z,97558.00
2022-11-18T18:51:51.265Z,97549.00
2022-11-18T18:54:20.817Z,97554.00
2022-11-18T18:56:49.401Z,97553.00
2022-11-18T18:59:16.671Z,97541.00
2022-11-18T19:01:44.059Z,97554.00
2022-11-18T19:04:13.650Z,97554.00
2022-11-18T19:07:01.145Z,97553.00
2022-11-18T19:09:28.879Z,97552.00
2022-11-18T19:12:14.953Z,97549.00
2022-11-18T19:14:42.319Z,97540.00
2022-11-18T19:17:11.594Z,97547.00
2022-11-18T19:20:00.830Z,97547.00
2022-11-18T19:22:33.354Z,97546.00
2022-11-18T19:27:48.451Z,97541.00
2022-11-18T19:30:16.988Z,97550.00
2022-11-18T19:32:44.283Z,97551.00
2022-11-18T19:35:11.789Z,97548.00
2022-11-18T19:37:39.130Z,97552.00
2022-11-18T19:40:10.542Z,97554.00
2022-11-18T19:42:39.392Z,97543.00
2022-11-18T19:45:09.555Z,97555.00
2022-11-18T19:47:37.822Z,97556.00
2022-11-18T19:50:08.042Z,97556.00
2022-11-18T19:52:35.331Z,97558.00
2022-11-18T19:55:02.657Z,97560.00
2022-11-18T19:57:31.191Z,97562.00
2022-11-18T19:59:58.495Z,97571.00
2022-11-18T20:02:25.793Z,97569.00
2022-11-18T20:05:11.712Z,97558.00
2022-11-18T20:07:39.058Z,97559.00
2022-11-18T20:10:09.243Z,97564.00
2022-11-18T20:12:37.277Z,97566.00
2022-11-18T20:15:05.449Z,97562.00
2022-11-18T20:17:32.811Z,97559.00
2022-11-18T20:20:00.104Z,97566.00
2022-11-18T20:22:27.408Z,97552.00
2022-11-18T20:24:54.698Z,97560.00
2022-11-18T20:27:21.983Z,97556.00
2022-11-18T20:29:49.248Z,97569.00
2022-11-18T20:32:18.306Z,97566.00
2022-11-18T20:34:47.070Z,97572.00
2022-11-18T20:37:15.030Z,97569.00
2022-11-18T20:39:42.325Z,97572.00
2022-11-18T20:42:27.938Z,97583.00
2022-11-18T20:44:55.246Z,97582.00
2022-11-18T20:47:22.524Z,97581.00
2022-11-18T20:49:49.811Z,97581.00
2022-11-18T20:52:17.084Z,97590.00
2022-11-18T20:54:45.666Z,97574.00
2022-11-18T20:57:12.959Z,97581.00
2022-11-18T20:59:40.210Z,97572.00
2022-11-18T21:02:08.668Z,97580.00
2022-11-18T21:04:35.970Z,97575.00
2022-11-18T21:07:03.302Z,97584.00
2022-11-18T21:09:32.825Z,97592.00
2022-11-18T21:12:00.810Z,97584.00
2022-11-18T21:14:28.309Z,97589.00
2022-11-18T21:17:01.891Z,97581.00
2022-11-18T21:19:32.841Z,97592.00
2022-11-18T21:22:00.350Z,97597.00
2022-11-18T21:24:31.954Z,97592.00
2022-11-18T21:27:01.846Z,97590.00
2022-11-18T21:29:32.513Z,97594.00
2022-11-18T21:32:01.453Z,97588.00
2022-11-18T21:34:30.233Z,97588.00
2022-11-18T21:36:58.196Z,97594.00
2022-11-18T21:39:25.930Z,97608.00
2022-11-18T21:41:56.586Z,97598.00
2022-11-18T21:44:28.061Z,97599.00
2022-11-18T21:46:56.403Z,97605.00
2022-11-18T21:49:23.958Z,97604.00
2022-11-18T21:51:51.341Z,97602.00
2022-11-18T21:54:18.716Z,97603.00
2022-11-18T21:56:46.047Z,97609.00
2022-11-18T21:59:13.549Z,97603.00
2022-11-18T22:01:40.816Z,97592.00
2022-11-18T22:04:08.175Z,97601.00
2022-11-18T22:06:36.428Z,97590.00
2022-11-18T22:09:06.047Z,97599.00
2022-11-18T22:11:33.438Z,97595.00
2022-11-18T22:14:01.933Z,97593.00
2022-11-18T22:16:29.326Z,97595.00
2022-11-18T22:19:01.424Z,97601.00
2022-11-18T22:21:31.155Z,97597.00
2022-11-18T22:24:00.875Z,97598.00
2022-11-18T22:26:29.463Z,97601.00
2022-11-18T22:28:58.493Z,97604.00
2022-11-18T22:31:28.499Z,97595.00
2022-11-18T22:33:57.050Z,97604.00
2022-11-18T22:36:27.513Z,97590.00
2022-11-18T22:38:55.424Z,97595.00
2022-11-18T22:41:48.135Z,97594.00
2022-11-18T22:44:17.844Z,97589.00
2022-11-18T22:46:46.607Z,97601.00
2022-11-18T22:49:14.183Z,97602.00
2022-11-18T22:51:41.510Z,97602.00
2022-11-18T22:54:37.600Z,97599.00
2022-11-18T22:56:57.402Z,97591.00
2022-11-18T22:59:25.026Z,97595.00
2022-11-18T23:01:52.908Z,97590.00
2022-11-18T23:04:20.441Z,97596.00
2022-11-18T23:06:49.628Z,97606.00
2022-11-18T23:09:17.757Z,97597.00
2022-11-18T23:12:04.163Z,97596.00
2022-11-18T23:14:31.698Z,97591.00
2022-11-18T23:16:59.594Z,97594.00
2022-11-18T23:19:26.880Z,97600.00
2022-11-18T23:21:54.145Z,97596.00
2022-11-18T23:24:21.489Z,97599.00
2022-11-18T23:26:48.801Z,97597.00
2022-11-18T23:29:17.093Z,97596.00
2022-11-18T23:31:45.532Z,97601.00
2022-11-18T23:34:16.475Z,97605.00
2022-11-18T23:36:44.063Z,97603.00
2022-11-18T23:39:11.818Z,97619.00
2022-11-18T23:41:40.189Z,97607.00
2022-11-18T23:44:07.583Z,97612.00
2022-11-18T23:46:35.287Z,97614.00
2022-11-18T23:49:05.093Z,97603.00
2022-11-18T23:51:32.367Z,97603.00
2022-11-18T23:53:59.670Z,97592.00
2022-11-18T23:56:28.056Z,97595.00
2022-11-18T23:58:56.965Z,97591.00
